Главная страница
METAR-TAF:

METAR-TAF

Аэропорты :

Дьёр, Венгрия

широта: 47-37-28N, долгота: 017-48-49E, высота над уровнем моря: 129 м

Текущие метеонаблюдения

Эта сводка был подготовлена 30 минут назад, в 04:15 UTC
Ветер 4 Узел от западный
Температура 17°C
Влажность 82%
Давление 1016 hPa
Видимость 10 км и более
Нет облачности ниже 1500 м, и нет кучево-дождевой облачности

METAR: LHPR 210415Z 26004KT CAVOK 17/14 Q1016 RMK BLU

Время: 06:45 (04:45 UTC)

Прогноз

Эта сводка был подготовлена 11 часа и 30 минут назад, в 17:15 UTC
Прогноз действительный с 20-го 18 UTC до 21-го 03 UTC
Ветер 6 Узел от южный-юго-западный
Видимость 10 км и более
Нет облачности ниже 1500 м, и нет кучево-дождевой облачности
изменения
С 20-го 20 UTC до 20-го 23 UTC
Ветер 6 Узел от западный

TAF: LHPR 201715Z 2018/2103 20006KT CAVOK BECMG 2020/2023 27006KT

Метеонаблюдения и прогнозы для более 4000 аэропортов (сводки METAR и TAF).

Имеющиеся станции представлены на карте желтыми и красными точками.

Чтобы увидеть название станции, наведите на нее мышь.

Затем щелкните, чтобы увидеть метеонаблюдения и метеопрогнозы.

Управление картой: чтобы увеличить масштаб, щелкните зеленые кнопки с черным крестиком; чтобы уменьшить масштаб, щелкните зеленую кнопку с тире; для просмотра соседних карт щелкайте зеленые стрелки.


METAR-TAF: